Time;durP1;ratioP1;P1;durP2;ratioP2;P2;SDS_P1;SDS_P2;PMS_P1;PMS_P2;Temp;Humidity;BMP_temperature;BMP_pressure;BME280_temperature;BME280_humidity;BME280_pressure;Samples;Min_cycle;Max_cycle;Signal;HPM_P1;HPM_P2
2022/03/06 00:00:01;;;;;;;8.45;5.90;;;-1.70;99.90;;;;;;476816;249;27636;-72
2022/03/06 00:02:02;;;;;;;8.40;5.62;;;-1.70;99.90;;;;;;476808;249;27681;-75
2022/03/06 00:04:03;;;;;;;8.13;6.25;;;-1.70;99.90;;;;;;476838;249;27573;-72
2022/03/06 00:06:05;;;;;;;9.25;6.90;;;-1.70;99.90;;;;;;476799;249;27530;-73
2022/03/06 00:08:06;;;;;;;8.27;5.90;;;-1.70;99.90;;;;;;476804;249;27532;-72
2022/03/06 00:10:07;;;;;;;8.65;5.75;;;-1.60;99.90;;;;;;476836;249;27553;-72
2022/03/06 00:12:08;;;;;;;9.32;6.43;;;-1.60;99.90;;;;;;476823;249;27950;-74
2022/03/06 00:14:10;;;;;;;9.82;5.50;;;-1.60;99.90;;;;;;476838;249;27523;-71
2022/03/06 00:16:11;;;;;;;8.00;6.20;;;-1.60;99.90;;;;;;476840;249;28023;-71
2022/03/06 00:18:12;;;;;;;7.28;5.15;;;-1.60;99.90;;;;;;476825;249;28053;-72
2022/03/06 00:20:14;;;;;;;6.47;4.95;;;-1.60;99.90;;;;;;476836;249;28003;-71
2022/03/06 00:22:15;;;;;;;6.57;4.93;;;-1.60;99.90;;;;;;476866;249;29279;-74
2022/03/06 00:24:16;;;;;;;7.45;5.68;;;-1.60;99.90;;;;;;476832;249;27527;-71
2022/03/06 00:26:17;;;;;;;6.03;4.75;;;-1.60;99.90;;;;;;476812;249;27570;-73
2022/03/06 00:28:19;;;;;;;6.43;4.68;;;-1.50;99.90;;;;;;476812;249;27598;-72
2022/03/06 00:30:20;;;;;;;7.57;4.87;;;-1.60;99.90;;;;;;476787;249;27538;-71
2022/03/06 00:32:21;;;;;;;6.40;4.78;;;-1.60;99.90;;;;;;476849;249;27622;-71
2022/03/06 00:34:22;;;;;;;5.70;4.43;;;-1.60;99.90;;;;;;476837;249;27506;-71
2022/03/06 00:36:24;;;;;;;5.55;4.45;;;-1.50;99.90;;;;;;476824;249;27579;-72
2022/03/06 00:38:25;;;;;;;8.85;5.72;;;-1.50;99.90;;;;;;476826;248;27959;-71
2022/03/06 00:40:26;;;;;;;5.90;4.57;;;-1.50;99.90;;;;;;476792;248;28055;-72
2022/03/06 00:42:27;;;;;;;8.40;5.70;;;-1.50;99.90;;;;;;476831;249;28136;-73
2022/03/06 00:44:29;;;;;;;6.18;5.00;;;-1.50;99.90;;;;;;476815;249;27528;-72
2022/03/06 00:46:30;;;;;;;7.72;5.40;;;-1.50;99.90;;;;;;476823;249;27578;-71
2022/03/06 00:48:31;;;;;;;8.60;5.95;;;-1.50;99.90;;;;;;476804;249;27505;-72
2022/03/06 00:50:32;;;;;;;9.63;5.90;;;-1.40;99.90;;;;;;476809;249;27593;-72
2022/03/06 00:52:34;;;;;;;7.10;6.00;;;-1.40;99.90;;;;;;476824;249;27670;-73
2022/03/06 00:54:35;;;;;;;8.75;6.05;;;-1.30;99.90;;;;;;476840;249;27512;-72
2022/03/06 00:56:36;;;;;;;10.98;6.30;;;-1.30;99.90;;;;;;476839;249;27549;-72
2022/03/06 00:58:38;;;;;;;8.45;6.12;;;-1.30;99.90;;;;;;476862;249;28718;-72
2022/03/06 01:00:39;;;;;;;7.85;6.20;;;-1.40;99.90;;;;;;476817;249;29039;-73
2022/03/06 01:02:40;;;;;;;8.20;5.60;;;-1.30;99.90;;;;;;476807;249;27556;-72
2022/03/06 01:04:41;;;;;;;9.63;6.85;;;-1.30;99.90;;;;;;476853;249;27586;-72
2022/03/06 01:06:42;;;;;;;8.80;6.25;;;-1.20;99.90;;;;;;476861;249;27548;-72
2022/03/06 01:08:44;;;;;;;8.00;6.37;;;-1.30;99.90;;;;;;476844;249;27542;-71
2022/03/06 01:10:45;;;;;;;12.65;6.68;;;-1.30;99.90;;;;;;476874;249;27627;-74
2022/03/06 01:12:46;;;;;;;7.45;5.40;;;-1.40;99.90;;;;;;476890;249;27563;-73
2022/03/06 01:14:48;;;;;;;6.37;5.60;;;-1.50;99.90;;;;;;476841;249;29210;-72
2022/03/06 01:16:49;;;;;;;7.30;5.90;;;-1.50;99.90;;;;;;476813;249;27560;-71
2022/03/06 01:18:50;;;;;;;8.38;5.72;;;-1.60;99.90;;;;;;476863;248;27561;-72
2022/03/06 01:20:51;;;;;;;7.85;6.25;;;-1.70;99.90;;;;;;476858;249;27504;-72
2022/03/06 01:22:53;;;;;;;7.95;5.93;;;-1.70;99.90;;;;;;476846;249;27541;-72
2022/03/06 01:24:54;;;;;;;9.45;6.22;;;-1.70;99.90;;;;;;476828;249;27611;-72
2022/03/06 01:26:55;;;;;;;6.45;5.45;;;-1.70;99.90;;;;;;476817;249;27574;-72
2022/03/06 01:28:56;;;;;;;5.90;5.18;;;-1.60;99.90;;;;;;476836;249;27579;-73
2022/03/06 01:30:58;;;;;;;7.45;5.10;;;-1.60;99.90;;;;;;476803;249;28016;-71
2022/03/06 01:33:00;;;;;;;7.87;5.40;;;-1.60;99.90;;;;;;476815;249;28020;-72
2022/03/06 01:35:00;;;;;;;6.40;5.00;;;-1.60;99.90;;;;;;476781;249;28747;-72
2022/03/06 01:37:01;;;;;;;7.35;5.40;;;-1.70;99.90;;;;;;476835;249;27532;-72
2022/03/06 01:39:03;;;;;;;4.70;4.28;;;-1.70;99.90;;;;;;476811;249;27555;-72
2022/03/06 01:41:04;;;;;;;5.12;4.43;;;-1.70;99.90;;;;;;476868;249;27525;-71
2022/03/06 01:43:05;;;;;;;6.87;5.18;;;-1.70;99.90;;;;;;476812;249;27548;-72
2022/03/06 01:45:08;;;;;;;7.20;5.30;;;-1.70;99.90;;;;;;476844;249;27510;-72
2022/03/06 01:47:08;;;;;;;7.62;5.28;;;-1.70;99.90;;;;;;476735;249;27551;-72
2022/03/06 01:49:09;;;;;;;8.98;6.12;;;-1.70;99.90;;;;;;476828;249;27617;-74
2022/03/06 01:51:10;;;;;;;6.85;5.45;;;-1.70;99.90;;;;;;476836;249;28030;-72
2022/03/06 01:53:12;;;;;;;7.20;5.53;;;-1.70;99.90;;;;;;476862;249;28038;-72
2022/03/06 01:55:14;;;;;;;7.22;5.55;;;-1.70;99.90;;;;;;476821;249;29083;-72
2022/03/06 01:57:15;;;;;;;6.55;5.22;;;-1.60;99.90;;;;;;476848;249;27655;-72
2022/03/06 01:59:16;;;;;;;7.37;5.12;;;-1.60;99.90;;;;;;476870;249;27975;-72
2022/03/06 02:01:17;;;;;;;9.68;6.97;;;-1.60;99.90;;;;;;476860;249;28045;-72
2022/03/06 02:03:19;;;;;;;9.05;5.20;;;-1.60;99.90;;;;;;476821;249;29067;-72
2022/03/06 02:05:20;;;;;;;7.07;5.20;;;-1.60;99.90;;;;;;476845;249;27566;-72
2022/03/06 02:07:21;;;;;;;7.10;5.53;;;-1.70;99.90;;;;;;476864;249;27552;-72
2022/03/06 02:09:22;;;;;;;5.97;5.30;;;-1.70;99.90;;;;;;476843;249;27504;-72
2022/03/06 02:11:24;;;;;;;5.78;4.55;;;-1.70;99.90;;;;;;476857;249;27560;-72
2022/03/06 02:13:25;;;;;;;7.55;5.87;;;-1.70;99.90;;;;;;476880;249;27522;-72
2022/03/06 02:15:26;;;;;;;7.70;5.35;;;-1.60;99.90;;;;;;476851;249;27560;-72
2022/03/06 02:17:27;;;;;;;7.95;6.07;;;-1.50;99.90;;;;;;476847;249;27566;-72
2022/03/06 02:19:29;;;;;;;8.00;5.35;;;-1.50;99.90;;;;;;476851;249;28026;-72
2022/03/06 02:21:30;;;;;;;8.30;6.00;;;-1.50;99.90;;;;;;476835;249;28047;-73
2022/03/06 02:23:32;;;;;;;6.90;5.10;;;-1.50;99.90;;;;;;476827;249;28152;-71
2022/03/06 02:25:33;;;;;;;8.82;6.28;;;-1.50;99.90;;;;;;476847;249;27502;-72
2022/03/06 02:27:35;;;;;;;8.68;6.22;;;-1.50;99.90;;;;;;476816;249;27548;-72
2022/03/06 02:29:36;;;;;;;7.75;5.60;;;-1.60;99.90;;;;;;476839;249;28099;-75
2022/03/06 02:31:37;;;;;;;9.48;6.60;;;-1.60;99.90;;;;;;476859;249;27967;-72
2022/03/06 02:33:38;;;;;;;7.10;5.80;;;-1.60;99.90;;;;;;476849;249;27625;-72
2022/03/06 02:35:40;;;;;;;6.25;4.87;;;-1.60;99.90;;;;;;476830;249;27500;-72
2022/03/06 02:37:41;;;;;;;7.32;5.10;;;-1.60;99.90;;;;;;476806;249;27614;-72
2022/03/06 02:39:44;;;;;;;5.37;4.87;;;-1.70;99.90;;;;;;476845;249;27650;-71
2022/03/06 02:41:45;;;;;;;5.20;4.60;;;-1.70;99.90;;;;;;476862;249;29230;-72
2022/03/06 02:43:47;;;;;;;6.37;4.75;;;-1.80;99.90;;;;;;476860;249;27555;-72
2022/03/06 02:45:48;;;;;;;6.05;5.03;;;-1.80;99.90;;;;;;476831;249;27629;-71
2022/03/06 02:47:49;;;;;;;5.30;4.80;;;-1.80;99.90;;;;;;476800;249;27562;-72
2022/03/06 02:49:51;;;;;;;5.45;4.37;;;-1.80;99.90;;;;;;476833;249;27630;-71
2022/03/06 02:51:52;;;;;;;4.32;3.92;;;-1.80;99.90;;;;;;476837;249;27594;-71
2022/03/06 02:53:53;;;;;;;4.75;4.22;;;-1.80;99.90;;;;;;476831;249;27653;-72
2022/03/06 02:55:54;;;;;;;5.35;4.50;;;-1.90;99.90;;;;;;476835;249;28023;-72
2022/03/06 02:57:55;;;;;;;4.95;4.45;;;-1.90;99.90;;;;;;476829;249;29248;-72
2022/03/06 02:59:57;;;;;;;5.18;3.95;;;-2.00;99.90;;;;;;476835;249;28365;-72
2022/03/06 03:01:58;;;;;;;4.50;4.10;;;-2.00;99.90;;;;;;476846;249;27561;-72
2022/03/06 03:03:59;;;;;;;4.37;3.97;;;-2.00;99.90;;;;;;476845;249;27540;-72
2022/03/06 03:06:00;;;;;;;6.07;4.30;;;-2.00;99.90;;;;;;476853;249;27515;-72
2022/03/06 03:08:02;;;;;;;4.78;4.28;;;-2.00;99.90;;;;;;476807;249;27563;-72
2022/03/06 03:10:03;;;;;;;4.85;4.30;;;-1.90;99.90;;;;;;476785;249;27522;-72
2022/03/06 03:12:04;;;;;;;6.00;4.05;;;-2.00;99.90;;;;;;476814;249;27532;-72
2022/03/06 03:14:05;;;;;;;5.95;4.60;;;-2.30;99.90;;;;;;476847;249;27542;-73
2022/03/06 03:16:07;;;;;;;4.32;3.92;;;-2.30;99.90;;;;;;476823;249;27955;-72
2022/03/06 03:18:08;;;;;;;6.20;4.37;;;-2.50;99.90;;;;;;476828;249;29127;-72
2022/03/06 03:20:09;;;;;;;4.18;3.83;;;-2.50;99.90;;;;;;476826;249;29114;-72
2022/03/06 03:22:10;;;;;;;6.93;4.90;;;-2.40;99.90;;;;;;476826;249;27504;-71
2022/03/06 03:24:12;;;;;;;5.15;4.68;;;-2.40;99.90;;;;;;476831;249;27568;-73
2022/03/06 03:26:13;;;;;;;4.45;4.00;;;-2.40;99.90;;;;;;476818;249;27705;-71
2022/03/06 03:28:14;;;;;;;8.20;4.97;;;-2.40;99.90;;;;;;476798;249;27677;-72
2022/03/06 03:30:15;;;;;;;5.00;4.50;;;-2.40;99.90;;;;;;476820;249;27642;-71
2022/03/06 03:32:17;;;;;;;6.70;5.22;;;-2.40;99.90;;;;;;476809;249;27645;-71
2022/03/06 03:34:18;;;;;;;5.82;5.22;;;-2.40;99.90;;;;;;476889;249;27540;-72
2022/03/06 03:36:19;;;;;;;5.40;4.82;;;-2.50;99.90;;;;;;476837;249;27954;-72
2022/03/06 03:38:20;;;;;;;5.20;4.70;;;-2.40;99.90;;;;;;476847;249;29109;-72
2022/03/06 03:40:22;;;;;;;7.12;4.85;;;-2.40;99.90;;;;;;476843;249;27579;-71
2022/03/06 03:42:23;;;;;;;5.32;4.03;;;-2.40;99.90;;;;;;476821;249;27524;-72
2022/03/06 03:44:24;;;;;;;4.93;4.50;;;-2.30;99.90;;;;;;476868;249;27550;-71
2022/03/06 03:46:26;;;;;;;6.30;4.70;;;-2.30;99.90;;;;;;476837;249;27607;-72
2022/03/06 03:48:27;;;;;;;5.00;4.37;;;-2.30;99.90;;;;;;476821;249;27547;-72
2022/03/06 03:50:28;;;;;;;4.05;3.65;;;-2.30;99.90;;;;;;476793;249;27571;-71
2022/03/06 03:52:29;;;;;;;5.90;3.95;;;-2.30;99.90;;;;;;476802;249;27389;-71
2022/03/06 03:54:31;;;;;;;5.40;4.45;;;-2.40;99.90;;;;;;476829;249;27548;-72
2022/03/06 03:56:32;;;;;;;4.72;4.30;;;-2.60;99.90;;;;;;476817;249;27939;-71
2022/03/06 03:58:33;;;;;;;6.62;4.95;;;-2.70;99.90;;;;;;476808;248;29154;-72
2022/03/06 04:00:34;;;;;;;4.85;4.22;;;-2.70;99.90;;;;;;476803;249;29081;-72
2022/03/06 04:02:36;;;;;;;5.28;4.62;;;-2.70;99.90;;;;;;476835;249;27525;-72
2022/03/06 04:04:37;;;;;;;5.32;4.82;;;-2.70;99.90;;;;;;476831;249;27556;-72
2022/03/06 04:06:38;;;;;;;4.53;4.07;;;-2.70;99.90;;;;;;476800;249;27570;-72
2022/03/06 04:08:39;;;;;;;4.55;4.12;;;-2.60;99.90;;;;;;476802;249;27599;-72
2022/03/06 04:10:41;;;;;;;4.25;3.85;;;-2.60;99.90;;;;;;476853;249;27531;-72
2022/03/06 04:12:42;;;;;;;5.00;4.55;;;-2.70;99.90;;;;;;476812;249;27527;-72
2022/03/06 04:14:43;;;;;;;4.60;4.12;;;-2.70;99.90;;;;;;476841;249;28016;-72
2022/03/06 04:16:44;;;;;;;5.62;3.85;;;-2.80;99.90;;;;;;476814;249;29164;-71
2022/03/06 04:18:46;;;;;;;4.85;3.75;;;-2.80;99.90;;;;;;476820;249;27651;-71
2022/03/06 04:20:47;;;;;;;6.78;4.37;;;-2.90;99.90;;;;;;476774;249;27571;-71
2022/03/06 04:22:48;;;;;;;6.53;4.35;;;-2.90;99.90;;;;;;476808;249;27548;-72
2022/03/06 04:24:49;;;;;;;5.03;3.92;;;-2.80;99.90;;;;;;476804;249;27559;-72
2022/03/06 04:26:51;;;;;;;4.40;4.00;;;-2.80;99.90;;;;;;476784;249;27541;-72
2022/03/06 04:28:52;;;;;;;4.70;4.22;;;-2.70;99.90;;;;;;476876;249;27574;-73
2022/03/06 04:30:53;;;;;;;4.28;3.72;;;-2.70;99.90;;;;;;476816;249;27404;-72
2022/03/06 04:32:54;;;;;;;4.60;4.00;;;-2.60;99.90;;;;;;476787;249;27615;-72
2022/03/06 04:34:56;;;;;;;4.78;3.70;;;-2.60;99.90;;;;;;476805;249;28136;-73
2022/03/06 04:36:57;;;;;;;4.53;4.12;;;-2.60;99.90;;;;;;476809;249;29079;-72
2022/03/06 04:38:58;;;;;;;6.10;4.05;;;-2.60;99.90;;;;;;476828;249;27594;-73
2022/03/06 04:40:59;;;;;;;5.00;4.12;;;-2.60;99.90;;;;;;476840;249;27508;-71
2022/03/06 04:43:01;;;;;;;4.97;4.32;;;-2.60;99.90;;;;;;476827;249;27588;-72
2022/03/06 04:45:02;;;;;;;5.03;4.03;;;-2.60;99.90;;;;;;476826;249;27572;-74
2022/03/06 04:47:03;;;;;;;6.10;4.32;;;-2.50;99.90;;;;;;476813;249;27522;-72
2022/03/06 04:49:04;;;;;;;5.05;4.40;;;-2.50;99.90;;;;;;476826;249;27568;-72
2022/03/06 04:51:06;;;;;;;5.18;4.32;;;-2.50;99.90;;;;;;476806;249;27510;-72
2022/03/06 04:53:07;;;;;;;4.32;3.92;;;-2.50;99.90;;;;;;476807;249;27532;-72
2022/03/06 04:55:08;;;;;;;4.62;3.80;;;-2.50;99.90;;;;;;476874;249;28007;-73
2022/03/06 04:57:09;;;;;;;5.07;4.47;;;-2.40;99.90;;;;;;476834;249;27932;-72
2022/03/06 04:59:11;;;;;;;4.28;3.87;;;-2.30;99.90;;;;;;476845;248;27559;-72
2022/03/06 05:01:12;;;;;;;6.57;4.40;;;-2.30;99.90;;;;;;476815;249;27523;-72
2022/03/06 05:03:13;;;;;;;4.37;3.95;;;-2.20;99.90;;;;;;476843;249;27612;-72
2022/03/06 05:05:14;;;;;;;4.43;4.03;;;-2.20;99.90;;;;;;476823;249;27644;-74
2022/03/06 05:07:16;;;;;;;4.75;4.07;;;-2.20;99.90;;;;;;476832;249;27515;-72
2022/03/06 05:09:17;;;;;;;4.70;4.30;;;-2.20;99.90;;;;;;476813;249;27570;-72
2022/03/06 05:11:18;;;;;;;4.45;4.05;;;-2.20;99.90;;;;;;476825;249;27574;-72
2022/03/06 05:13:20;;;;;;;4.97;4.40;;;-2.10;99.90;;;;;;476811;249;27601;-71
2022/03/06 05:15:21;;;;;;;5.82;4.78;;;-2.10;99.90;;;;;;476839;249;28055;-72
2022/03/06 05:17:22;;;;;;;5.05;4.40;;;-2.10;99.90;;;;;;476840;249;29129;-72
2022/03/06 05:19:23;;;;;;;4.30;3.90;;;-2.00;99.90;;;;;;476800;249;27548;-72
2022/03/06 05:21:24;;;;;;;4.70;3.80;;;-2.00;99.90;;;;;;476801;249;27551;-72
2022/03/06 05:23:26;;;;;;;4.78;4.20;;;-2.00;99.90;;;;;;476835;249;27504;-72
2022/03/06 05:25:27;;;;;;;4.07;3.78;;;-1.90;99.90;;;;;;476824;249;27570;-73
2022/03/06 05:27:28;;;;;;;4.65;4.25;;;-1.90;99.90;;;;;;476790;249;27564;-71
2022/03/06 05:29:29;;;;;;;4.72;4.20;;;-1.90;99.90;;;;;;476795;249;27581;-72
2022/03/06 05:31:31;;;;;;;5.25;4.40;;;-1.90;99.90;;;;;;476823;249;27623;-75
2022/03/06 05:33:32;;;;;;;4.82;4.32;;;-1.90;99.90;;;;;;476815;249;27517;-72
2022/03/06 05:35:33;;;;;;;5.65;4.25;;;-1.90;99.90;;;;;;476806;249;28055;-73
2022/03/06 05:37:34;;;;;;;5.10;4.35;;;-1.80;99.90;;;;;;476787;249;27981;-72
2022/03/06 05:39:36;;;;;;;4.97;4.57;;;-1.80;99.90;;;;;;476811;249;27669;-72
2022/03/06 05:41:37;;;;;;;5.10;4.25;;;-1.80;99.90;;;;;;476856;249;27587;-75
2022/03/06 05:43:38;;;;;;;6.35;4.65;;;-1.80;99.90;;;;;;476837;249;27696;-71
2022/03/06 05:45:39;;;;;;;5.70;4.60;;;-2.00;99.90;;;;;;476826;249;27556;-73
2022/03/06 05:47:41;;;;;;;5.03;3.92;;;-2.00;99.90;;;;;;476820;249;27525;-72
2022/03/06 05:49:42;;;;;;;8.57;4.70;;;-2.00;99.90;;;;;;476791;249;27600;-73
2022/03/06 05:51:44;;;;;;;5.20;4.65;;;-2.00;99.90;;;;;;476835;249;27567;-75
2022/03/06 05:53:44;;;;;;;6.05;4.37;;;-2.10;99.90;;;;;;476824;249;27627;-72
2022/03/06 05:55:46;;;;;;;5.45;4.32;;;-2.10;99.90;;;;;;476850;249;28090;-72
2022/03/06 05:57:47;;;;;;;4.70;4.30;;;-2.10;99.90;;;;;;476830;249;27945;-72
2022/03/06 05:59:48;;;;;;;4.32;3.92;;;-2.20;99.90;;;;;;476817;249;27563;-72
2022/03/06 06:01:50;;;;;;;6.70;4.80;;;-2.20;99.90;;;;;;476828;249;27571;-72
2022/03/06 06:03:51;;;;;;;6.05;4.70;;;-2.30;99.90;;;;;;476810;249;27517;-72
2022/03/06 06:05:52;;;;;;;6.18;4.45;;;-2.40;99.90;;;;;;476818;249;27551;-72
2022/03/06 06:07:53;;;;;;;5.72;5.18;;;-2.60;99.90;;;;;;476803;249;27607;-71
2022/03/06 06:09:55;;;;;;;7.28;5.32;;;-2.70;99.90;;;;;;476819;249;27651;-71
2022/03/06 06:11:56;;;;;;;5.78;4.82;;;-2.70;99.90;;;;;;476846;249;27560;-74
2022/03/06 06:13:57;;;;;;;7.70;4.95;;;-2.80;99.90;;;;;;476818;249;27618;-72
2022/03/06 06:15:58;;;;;;;5.93;4.45;;;-2.70;99.90;;;;;;476838;249;28055;-72
2022/03/06 06:18:00;;;;;;;6.40;4.85;;;-2.70;99.90;;;;;;476792;249;28016;-72
2022/03/06 06:20:01;;;;;;;5.07;4.50;;;-2.60;99.90;;;;;;476822;249;27532;-72
2022/03/06 06:22:02;;;;;;;5.00;3.90;;;-2.50;99.90;;;;;;476826;249;27629;-74
2022/03/06 06:24:03;;;;;;;7.43;4.50;;;-2.50;99.90;;;;;;476837;249;27595;-72
2022/03/06 06:26:05;;;;;;;5.40;4.62;;;-2.50;99.90;;;;;;476815;249;27567;-71
2022/03/06 06:28:06;;;;;;;5.43;4.07;;;-2.40;99.90;;;;;;476839;249;27593;-71
2022/03/06 06:30:07;;;;;;;6.15;4.50;;;-2.50;99.90;;;;;;476830;248;27622;-71
2022/03/06 06:32:08;;;;;;;7.10;4.62;;;-2.40;99.90;;;;;;476845;249;27558;-74
2022/03/06 06:34:10;;;;;;;5.62;4.35;;;-2.40;99.90;;;;;;476836;249;27609;-72
2022/03/06 06:36:11;;;;;;;4.55;4.15;;;-2.20;99.90;;;;;;476830;249;28038;-72
2022/03/06 06:38:12;;;;;;;6.85;5.07;;;-2.10;99.90;;;;;;476842;249;29065;-72
2022/03/06 06:40:14;;;;;;;6.70;4.80;;;-2.10;99.90;;;;;;476854;249;27544;-72
2022/03/06 06:42:15;;;;;;;6.22;5.00;;;-2.20;99.90;;;;;;476825;249;27595;-74
2022/03/06 06:44:16;;;;;;;6.47;5.25;;;-2.20;99.90;;;;;;476836;249;27595;-72
2022/03/06 06:46:17;;;;;;;5.28;4.75;;;-2.10;99.90;;;;;;476829;249;27564;-72
2022/03/06 06:48:18;;;;;;;6.10;5.47;;;-1.90;99.90;;;;;;476827;249;27566;-72
2022/03/06 06:50:20;;;;;;;5.97;4.87;;;-1.80;99.90;;;;;;476791;249;27562;-71
2022/03/06 06:52:21;;;;;;;5.65;4.53;;;-1.70;99.90;;;;;;476793;249;27574;-72
2022/03/06 06:54:22;;;;;;;5.03;4.53;;;-1.60;99.90;;;;;;476808;249;27945;-72
2022/03/06 06:56:23;;;;;;;6.90;6.00;;;-1.50;99.90;;;;;;476837;249;28060;-73
2022/03/06 06:58:25;;;;;;;9.25;6.65;;;-1.40;99.90;;;;;;476892;249;28013;-71
2022/03/06 07:00:26;;;;;;;8.70;6.55;;;-1.20;99.90;;;;;;476825;249;27556;-72
2022/03/06 07:02:27;;;;;;;10.38;6.78;;;-1.20;99.90;;;;;;476802;249;27543;-71
2022/03/06 07:04:28;;;;;;;10.52;7.60;;;-1.10;99.90;;;;;;476830;249;27562;-72
2022/03/06 07:06:30;;;;;;;9.20;7.32;;;-1.00;99.90;;;;;;476833;249;27577;-73
2022/03/06 07:08:31;;;;;;;11.63;8.00;;;-0.80;99.90;;;;;;476782;249;27580;-72
2022/03/06 07:10:32;;;;;;;13.48;8.25;;;-0.70;99.90;;;;;;476801;249;27541;-73
2022/03/06 07:12:33;;;;;;;12.85;9.27;;;-0.60;99.90;;;;;;476790;249;28736;-72
2022/03/06 07:14:35;;;;;;;15.65;9.63;;;-0.50;99.90;;;;;;476797;249;28128;-74
2022/03/06 07:16:36;;;;;;;16.15;9.32;;;-0.40;99.90;;;;;;476799;249;27643;-74
2022/03/06 07:18:37;;;;;;;11.48;7.87;;;-0.30;99.90;;;;;;476846;247;27512;-72
2022/03/06 07:20:38;;;;;;;11.43;8.25;;;-0.30;99.90;;;;;;476858;249;27559;-72
2022/03/06 07:22:40;;;;;;;13.98;8.50;;;-0.20;99.90;;;;;;476800;249;27607;-71
2022/03/06 07:24:41;;;;;;;11.07;7.72;;;-0.20;99.90;;;;;;476857;249;28053;-72
2022/03/06 07:26:42;;;;;;;12.50;8.77;;;-0.20;99.90;;;;;;476863;249;28010;-72
2022/03/06 07:28:44;;;;;;;11.68;8.20;;;-0.10;99.90;;;;;;476836;249;27971;-72
2022/03/06 07:30:45;;;;;;;14.95;9.43;;;-0.10;99.90;;;;;;476806;249;27551;-72
2022/03/06 07:32:46;;;;;;;14.43;9.65;;;-0.10;99.90;;;;;;476845;249;27531;-72
2022/03/06 07:34:47;;;;;;;12.65;8.68;;;0.00;99.90;;;;;;476810;249;27520;-72
2022/03/06 07:36:48;;;;;;;15.13;8.75;;;0.00;99.90;;;;;;476808;249;27580;-72
2022/03/06 07:38:50;;;;;;;13.52;8.90;;;0.00;99.90;;;;;;476800;249;27555;-71
2022/03/06 07:40:51;;;;;;;13.98;9.40;;;0.00;99.90;;;;;;476793;249;27543;-72
2022/03/06 07:42:52;;;;;;;11.02;8.82;;;0.10;99.90;;;;;;476853;249;28059;-72
2022/03/06 07:44:54;;;;;;;12.98;9.25;;;0.20;99.90;;;;;;476848;249;29090;-72
2022/03/06 07:46:55;;;;;;;14.25;9.68;;;0.20;99.90;;;;;;476849;249;28011;-73
2022/03/06 07:48:56;;;;;;;14.77;10.63;;;0.30;99.90;;;;;;476832;249;27577;-72
2022/03/06 07:50:57;;;;;;;12.77;9.20;;;0.30;99.90;;;;;;476703;249;27544;-72
2022/03/06 07:52:59;;;;;;;12.95;9.40;;;0.40;99.90;;;;;;476844;249;27614;-73
2022/03/06 07:55:00;;;;;;;13.27;9.70;;;0.50;99.90;;;;;;476864;249;27523;-71
2022/03/06 07:57:01;;;;;;;10.77;8.18;;;0.50;99.90;;;;;;476836;249;27558;-73
2022/03/06 07:59:02;;;;;;;14.98;8.75;;;0.60;99.90;;;;;;476836;249;27516;-71
2022/03/06 08:01:04;;;;;;;12.20;7.97;;;0.70;99.90;;;;;;476759;249;27547;-72
2022/03/06 08:03:05;;;;;;;12.35;8.65;;;0.70;99.90;;;;;;476802;249;28234;-75
2022/03/06 08:05:06;;;;;;;12.80;8.30;;;0.70;99.90;;;;;;476902;249;28066;-72
2022/03/06 08:07:07;;;;;;;12.10;8.45;;;0.80;99.90;;;;;;476890;249;27540;-73
2022/03/06 08:09:09;;;;;;;12.37;8.10;;;0.90;99.90;;;;;;476793;249;27581;-72
2022/03/06 08:11:10;;;;;;;12.65;8.48;;;0.90;99.90;;;;;;476800;249;27577;-72
2022/03/06 08:13:11;;;;;;;12.95;8.90;;;0.90;99.90;;;;;;476820;249;27653;-72
2022/03/06 08:15:12;;;;;;;13.02;9.45;;;0.90;99.90;;;;;;476811;249;27527;-72
2022/03/06 08:17:14;;;;;;;9.85;7.85;;;1.00;99.90;;;;;;476832;249;27639;-72
2022/03/06 08:19:16;;;;;;;12.90;8.35;;;1.10;99.90;;;;;;476831;249;27511;-72
2022/03/06 08:21:16;;;;;;;13.48;8.93;;;1.10;99.90;;;;;;476756;249;27540;-72
2022/03/06 08:23:17;;;;;;;12.15;8.52;;;1.20;99.90;;;;;;476825;249;28009;-72
2022/03/06 08:25:20;;;;;;;14.65;9.10;;;1.20;99.90;;;;;;476868;249;28056;-72
2022/03/06 08:27:20;;;;;;;13.32;8.27;;;1.40;99.90;;;;;;476801;249;28024;-72
2022/03/06 08:29:21;;;;;;;14.07;9.23;;;1.50;99.90;;;;;;476814;249;27509;-72
2022/03/06 08:31:22;;;;;;;14.30;9.48;;;1.50;99.90;;;;;;476770;249;27538;-72
2022/03/06 08:33:24;;;;;;;12.50;9.20;;;1.50;99.90;;;;;;476828;249;27568;-73
2022/03/06 08:35:25;;;;;;;13.70;9.05;;;1.60;99.90;;;;;;476854;249;27518;-72
2022/03/06 08:37:26;;;;;;;13.50;8.93;;;1.70;99.90;;;;;;476845;249;27560;-72
2022/03/06 08:39:27;;;;;;;13.25;8.93;;;1.80;99.90;;;;;;476835;249;27510;-71
2022/03/06 08:41:29;;;;;;;13.30;9.35;;;1.80;99.90;;;;;;476813;249;27575;-72
2022/03/06 08:43:30;;;;;;;15.85;9.80;;;1.90;99.90;;;;;;476834;249;28082;-73
2022/03/06 08:45:31;;;;;;;15.00;9.10;;;1.70;99.90;;;;;;476835;249;28166;-72
2022/03/06 08:47:32;;;;;;;15.50;9.50;;;1.70;99.90;;;;;;476815;249;27574;-72
2022/03/06 08:49:34;;;;;;;12.63;9.20;;;1.70;99.90;;;;;;476820;249;27503;-75
2022/03/06 08:51:35;;;;;;;12.27;9.32;;;1.80;99.90;;;;;;476807;249;27532;-72
2022/03/06 08:53:36;;;;;;;14.43;9.15;;;1.80;99.90;;;;;;476755;249;27539;-73
2022/03/06 08:55:37;;;;;;;13.23;8.80;;;1.70;99.90;;;;;;476778;249;27619;-73
2022/03/06 08:57:39;;;;;;;12.65;8.75;;;1.80;99.90;;;;;;476763;249;27577;-72
2022/03/06 08:59:40;;;;;;;13.40;8.73;;;1.90;99.90;;;;;;476761;249;27639;-71
2022/03/06 09:01:41;;;;;;;14.90;9.90;;;1.90;99.90;;;;;;476824;249;27590;-72
2022/03/06 09:03:43;;;;;;;12.77;9.30;;;1.90;99.90;;;;;;476808;249;27982;-72
2022/03/06 09:05:44;;;;;;;12.88;8.20;;;2.00;99.90;;;;;;476824;249;27965;-72
2022/03/06 09:07:45;;;;;;;12.95;9.05;;;2.10;99.90;;;;;;476779;249;27624;-72
2022/03/06 09:09:49;;;;;;;13.65;8.57;;;2.10;99.90;;;;;;476832;249;27563;-72
2022/03/06 09:11:50;;;;;;;13.43;9.45;;;2.20;99.90;;;;;;476819;249;27518;-71
2022/03/06 09:13:51;;;;;;;15.77;10.40;;;2.20;99.90;;;;;;476811;249;27552;-72
2022/03/06 09:15:52;;;;;;;13.75;9.00;;;2.20;99.90;;;;;;476863;249;27981;-72
2022/03/06 09:17:53;;;;;;;14.13;8.65;;;2.20;99.90;;;;;;476872;249;27975;-72
2022/03/06 09:19:55;;;;;;;14.43;9.20;;;2.30;99.90;;;;;;476903;249;27541;-73
2022/03/06 09:21:56;;;;;;;11.07;8.18;;;2.30;99.90;;;;;;476890;249;27611;-71
2022/03/06 09:23:57;;;;;;;11.15;7.80;;;2.40;99.90;;;;;;476856;249;27542;-72
2022/03/06 09:25:58;;;;;;;13.48;8.60;;;2.40;99.90;;;;;;476880;249;27504;-72
2022/03/06 09:28:00;;;;;;;12.68;8.70;;;2.40;99.90;;;;;;476843;249;27558;-71
2022/03/06 09:30:01;;;;;;;13.62;8.93;;;2.50;99.90;;;;;;476873;249;27582;-73
2022/03/06 09:32:02;;;;;;;12.15;9.32;;;2.60;99.90;;;;;;476866;249;27522;-72
2022/03/06 09:34:03;;;;;;;13.80;8.85;;;2.60;99.90;;;;;;476838;249;27996;-71
2022/03/06 09:36:06;;;;;;;13.48;8.40;;;2.70;99.90;;;;;;476845;249;28101;-71
2022/03/06 09:38:07;;;;;;;11.15;8.13;;;2.80;99.90;;;;;;476875;249;27553;-72
2022/03/06 09:40:08;;;;;;;12.10;8.20;;;2.80;99.90;;;;;;476855;249;27591;-72
2022/03/06 09:42:10;;;;;;;12.45;8.57;;;2.70;99.90;;;;;;476871;249;28139;-72
2022/03/06 09:44:11;;;;;;;14.87;9.48;;;2.80;99.90;;;;;;476856;249;28201;-72
2022/03/06 09:46:12;;;;;;;13.02;8.98;;;2.80;99.90;;;;;;476893;249;27511;-71
2022/03/06 09:48:13;;;;;;;11.63;8.40;;;2.80;99.90;;;;;;476886;249;27548;-72
2022/03/06 09:50:15;;;;;;;9.80;7.75;;;2.70;99.90;;;;;;476897;249;27505;-71
2022/03/06 09:52:16;;;;;;;10.27;7.32;;;2.60;99.90;;;;;;476881;249;27539;-72
2022/03/06 09:54:17;;;;;;;13.32;8.18;;;2.60;99.90;;;;;;476881;249;27634;-71
2022/03/06 09:56:18;;;;;;;11.30;8.18;;;2.80;99.90;;;;;;476892;249;27518;-72
2022/03/06 09:58:20;;;;;;;12.35;7.90;;;3.00;99.90;;;;;;476895;249;27559;-71
2022/03/06 10:00:21;;;;;;;12.15;8.90;;;3.00;99.90;;;;;;476861;249;27502;-72
2022/03/06 10:02:22;;;;;;;11.40;8.15;;;2.80;99.90;;;;;;476848;249;28072;-72
2022/03/06 10:04:24;;;;;;;10.50;7.75;;;2.80;99.90;;;;;;476873;249;28072;-72
2022/03/06 10:06:25;;;;;;;9.80;7.50;;;2.80;99.90;;;;;;476859;249;27968;-72
2022/03/06 10:08:26;;;;;;;11.43;8.13;;;2.90;99.90;;;;;;476870;249;27554;-71
2022/03/06 10:10:27;;;;;;;11.77;7.75;;;2.90;99.90;;;;;;476865;249;27594;-71
2022/03/06 10:12:28;;;;;;;11.10;7.85;;;3.10;99.90;;;;;;476851;249;27574;-73
2022/03/06 10:14:30;;;;;;;11.00;7.25;;;3.30;99.90;;;;;;476848;249;27978;-74
2022/03/06 10:16:31;;;;;;;10.88;7.40;;;3.30;99.90;;;;;;476858;249;27582;-72
2022/03/06 10:18:32;;;;;;;11.65;7.85;;;3.20;99.90;;;;;;476859;249;27559;-72
2022/03/06 10:20:33;;;;;;;11.12;7.10;;;3.10;99.90;;;;;;476842;249;27941;-72
2022/03/06 10:22:35;;;;;;;12.27;7.60;;;3.20;99.90;;;;;;476842;249;28074;-72
2022/03/06 10:24:36;;;;;;;11.35;7.30;;;3.20;99.90;;;;;;476870;249;27630;-74
2022/03/06 10:26:37;;;;;;;11.18;7.25;;;3.30;99.90;;;;;;476834;249;27516;-73
2022/03/06 10:28:38;;;;;;;10.32;6.40;;;3.30;99.90;;;;;;476837;249;27634;-71